sensor_id;sensor_type;location;lat;lon;timestamp;P1;durP1;ratioP1;P2;durP2;ratioP2
50968;SDS011;36982;51.474;7.228;2023-02-04T00:00:06;19.93;;;3.67;;
50968;SDS011;36982;51.474;7.228;2023-02-04T00:02:33;13.47;;;3.10;;
50968;SDS011;36982;51.474;7.228;2023-02-04T00:04:59;11.47;;;2.43;;
50968;SDS011;36982;51.474;7.228;2023-02-04T00:07:25;17.20;;;3.40;;
50968;SDS011;36982;51.474;7.228;2023-02-04T00:09:50;17.00;;;3.57;;
50968;SDS011;36982;51.474;7.228;2023-02-04T00:12:16;17.63;;;3.40;;
50968;SDS011;36982;51.474;7.228;2023-02-04T00:14:42;14.63;;;3.17;;
50968;SDS011;36982;51.474;7.228;2023-02-04T00:17:07;15.63;;;3.47;;
50968;SDS011;36982;51.474;7.228;2023-02-04T00:19:35;21.33;;;3.57;;
50968;SDS011;36982;51.474;7.228;2023-02-04T00:22:01;16.03;;;3.43;;
50968;SDS011;36982;51.474;7.228;2023-02-04T00:24:28;19.33;;;3.00;;
50968;SDS011;36982;51.474;7.228;2023-02-04T00:26:55;20.07;;;3.70;;
50968;SDS011;36982;51.474;7.228;2023-02-04T00:29:20;20.47;;;3.83;;
50968;SDS011;36982;51.474;7.228;2023-02-04T00:31:46;13.57;;;3.50;;
50968;SDS011;36982;51.474;7.228;2023-02-04T00:34:12;14.83;;;3.13;;
50968;SDS011;36982;51.474;7.228;2023-02-04T00:36:37;16.03;;;3.50;;
50968;SDS011;36982;51.474;7.228;2023-02-04T00:39:03;16.97;;;4.13;;
50968;SDS011;36982;51.474;7.228;2023-02-04T00:41:28;21.00;;;4.10;;
50968;SDS011;36982;51.474;7.228;2023-02-04T00:43:54;18.63;;;4.30;;
50968;SDS011;36982;51.474;7.228;2023-02-04T00:46:20;21.27;;;3.90;;
50968;SDS011;36982;51.474;7.228;2023-02-04T00:48:45;16.03;;;3.50;;
50968;SDS011;36982;51.474;7.228;2023-02-04T00:51:11;18.30;;;3.77;;
50968;SDS011;36982;51.474;7.228;2023-02-04T00:53:36;17.93;;;3.63;;
50968;SDS011;36982;51.474;7.228;2023-02-04T00:56:02;24.80;;;3.33;;
50968;SDS011;36982;51.474;7.228;2023-02-04T00:58:27;14.97;;;3.37;;
50968;SDS011;36982;51.474;7.228;2023-02-04T01:00:53;16.87;;;3.30;;
50968;SDS011;36982;51.474;7.228;2023-02-04T01:03:19;17.27;;;3.50;;
50968;SDS011;36982;51.474;7.228;2023-02-04T01:05:44;17.47;;;3.47;;
50968;SDS011;36982;51.474;7.228;2023-02-04T01:08:10;21.77;;;3.67;;
50968;SDS011;36982;51.474;7.228;2023-02-04T01:10:35;19.63;;;3.80;;
50968;SDS011;36982;51.474;7.228;2023-02-04T01:13:01;14.90;;;3.07;;
50968;SDS011;36982;51.474;7.228;2023-02-04T01:15:26;15.97;;;3.50;;
50968;SDS011;36982;51.474;7.228;2023-02-04T01:17:52;18.50;;;3.23;;
50968;SDS011;36982;51.474;7.228;2023-02-04T01:20:18;19.50;;;3.77;;
50968;SDS011;36982;51.474;7.228;2023-02-04T01:22:43;17.97;;;3.10;;
50968;SDS011;36982;51.474;7.228;2023-02-04T01:25:09;15.77;;;3.27;;
50968;SDS011;36982;51.474;7.228;2023-02-04T01:27:35;14.00;;;3.03;;
50968;SDS011;36982;51.474;7.228;2023-02-04T01:30:01;13.23;;;3.33;;
50968;SDS011;36982;51.474;7.228;2023-02-04T01:32:27;21.23;;;3.37;;
50968;SDS011;36982;51.474;7.228;2023-02-04T01:34:52;13.20;;;3.03;;
50968;SDS011;36982;51.474;7.228;2023-02-04T01:37:18;21.70;;;4.30;;
50968;SDS011;36982;51.474;7.228;2023-02-04T01:39:43;15.17;;;3.30;;
50968;SDS011;36982;51.474;7.228;2023-02-04T01:42:09;19.87;;;3.77;;
50968;SDS011;36982;51.474;7.228;2023-02-04T01:44:35;15.37;;;3.30;;
50968;SDS011;36982;51.474;7.228;2023-02-04T01:47:01;14.73;;;3.23;;
50968;SDS011;36982;51.474;7.228;2023-02-04T01:49:27;16.53;;;3.63;;
50968;SDS011;36982;51.474;7.228;2023-02-04T01:51:53;20.53;;;3.30;;
50968;SDS011;36982;51.474;7.228;2023-02-04T01:54:19;14.03;;;3.00;;
50968;SDS011;36982;51.474;7.228;2023-02-04T01:56:46;19.83;;;3.40;;
50968;SDS011;36982;51.474;7.228;2023-02-04T01:59:15;19.33;;;3.57;;
50968;SDS011;36982;51.474;7.228;2023-02-04T02:01:43;19.97;;;3.57;;
50968;SDS011;36982;51.474;7.228;2023-02-04T02:04:12;14.60;;;3.43;;
50968;SDS011;36982;51.474;7.228;2023-02-04T02:06:41;19.07;;;3.43;;
50968;SDS011;36982;51.474;7.228;2023-02-04T02:09:11;15.77;;;3.70;;
50968;SDS011;36982;51.474;7.228;2023-02-04T02:11:37;16.63;;;3.47;;
50968;SDS011;36982;51.474;7.228;2023-02-04T02:14:03;14.13;;;3.90;;
50968;SDS011;36982;51.474;7.228;2023-02-04T02:16:29;16.07;;;3.43;;
50968;SDS011;36982;51.474;7.228;2023-02-04T02:18:55;22.40;;;4.03;;
50968;SDS011;36982;51.474;7.228;2023-02-04T02:21:37;14.53;;;4.10;;
50968;SDS011;36982;51.474;7.228;2023-02-04T02:24:24;13.83;;;3.60;;
50968;SDS011;36982;51.474;7.228;2023-02-04T02:26:51;17.67;;;3.83;;
50968;SDS011;36982;51.474;7.228;2023-02-04T02:29:18;19.43;;;3.43;;
50968;SDS011;36982;51.474;7.228;2023-02-04T02:31:44;21.43;;;3.60;;
50968;SDS011;36982;51.474;7.228;2023-02-04T02:34:10;18.10;;;3.10;;
50968;SDS011;36982;51.474;7.228;2023-02-04T02:36:35;19.47;;;3.17;;
50968;SDS011;36982;51.474;7.228;2023-02-04T02:39:01;20.30;;;3.43;;
50968;SDS011;36982;51.474;7.228;2023-02-04T02:41:27;19.33;;;3.23;;
50968;SDS011;36982;51.474;7.228;2023-02-04T02:43:52;12.83;;;3.23;;
50968;SDS011;36982;51.474;7.228;2023-02-04T02:46:18;14.80;;;3.47;;
50968;SDS011;36982;51.474;7.228;2023-02-04T02:48:43;17.40;;;3.90;;
50968;SDS011;36982;51.474;7.228;2023-02-04T02:51:09;18.20;;;3.77;;
50968;SDS011;36982;51.474;7.228;2023-02-04T02:53:35;21.43;;;3.70;;
50968;SDS011;36982;51.474;7.228;2023-02-04T02:56:00;17.37;;;3.93;;
50968;SDS011;36982;51.474;7.228;2023-02-04T02:58:29;16.23;;;3.13;;
50968;SDS011;36982;51.474;7.228;2023-02-04T03:01:01;17.17;;;4.07;;
50968;SDS011;36982;51.474;7.228;2023-02-04T03:03:32;15.43;;;3.63;;
50968;SDS011;36982;51.474;7.228;2023-02-04T03:06:07;18.97;;;3.73;;
50968;SDS011;36982;51.474;7.228;2023-02-04T03:08:44;17.43;;;3.47;;
50968;SDS011;36982;51.474;7.228;2023-02-04T03:11:10;22.47;;;3.40;;
50968;SDS011;36982;51.474;7.228;2023-02-04T03:13:36;12.33;;;3.97;;
50968;SDS011;36982;51.474;7.228;2023-02-04T03:16:02;19.63;;;3.80;;
50968;SDS011;36982;51.474;7.228;2023-02-04T03:18:29;22.27;;;3.03;;
50968;SDS011;36982;51.474;7.228;2023-02-04T03:20:55;19.10;;;3.70;;
50968;SDS011;36982;51.474;7.228;2023-02-04T03:23:22;12.93;;;2.90;;
50968;SDS011;36982;51.474;7.228;2023-02-04T03:25:48;18.27;;;3.60;;
50968;SDS011;36982;51.474;7.228;2023-02-04T03:28:14;12.27;;;3.17;;
50968;SDS011;36982;51.474;7.228;2023-02-04T03:30:39;22.47;;;3.70;;
50968;SDS011;36982;51.474;7.228;2023-02-04T03:33:05;16.77;;;3.37;;
50968;SDS011;36982;51.474;7.228;2023-02-04T03:35:31;18.10;;;3.30;;
50968;SDS011;36982;51.474;7.228;2023-02-04T03:37:56;18.13;;;3.50;;
50968;SDS011;36982;51.474;7.228;2023-02-04T03:40:22;19.43;;;4.23;;
50968;SDS011;36982;51.474;7.228;2023-02-04T03:42:47;16.77;;;2.90;;
50968;SDS011;36982;51.474;7.228;2023-02-04T03:45:13;21.63;;;4.27;;
50968;SDS011;36982;51.474;7.228;2023-02-04T03:47:38;18.23;;;3.13;;
50968;SDS011;36982;51.474;7.228;2023-02-04T03:50:04;19.13;;;3.80;;
50968;SDS011;36982;51.474;7.228;2023-02-04T03:52:30;19.10;;;4.00;;
50968;SDS011;36982;51.474;7.228;2023-02-04T03:54:55;20.00;;;3.50;;
50968;SDS011;36982;51.474;7.228;2023-02-04T03:57:21;18.57;;;3.80;;
50968;SDS011;36982;51.474;7.228;2023-02-04T03:59:46;22.47;;;4.87;;
50968;SDS011;36982;51.474;7.228;2023-02-04T04:02:12;17.47;;;3.13;;
50968;SDS011;36982;51.474;7.228;2023-02-04T04:04:38;20.10;;;2.93;;
50968;SDS011;36982;51.474;7.228;2023-02-04T04:07:03;18.47;;;3.53;;
50968;SDS011;36982;51.474;7.228;2023-02-04T04:09:29;16.37;;;3.07;;
50968;SDS011;36982;51.474;7.228;2023-02-04T04:11:55;14.10;;;3.07;;
50968;SDS011;36982;51.474;7.228;2023-02-04T04:14:20;20.73;;;3.57;;
50968;SDS011;36982;51.474;7.228;2023-02-04T04:16:46;18.63;;;3.40;;
50968;SDS011;36982;51.474;7.228;2023-02-04T04:19:11;16.07;;;3.50;;
50968;SDS011;36982;51.474;7.228;2023-02-04T04:21:37;23.80;;;4.13;;
50968;SDS011;36982;51.474;7.228;2023-02-04T04:24:02;20.50;;;3.90;;
50968;SDS011;36982;51.474;7.228;2023-02-04T04:26:31;18.30;;;3.37;;
50968;SDS011;36982;51.474;7.228;2023-02-04T04:28:56;15.73;;;3.37;;
50968;SDS011;36982;51.474;7.228;2023-02-04T04:31:22;18.03;;;3.40;;
50968;SDS011;36982;51.474;7.228;2023-02-04T04:33:47;17.87;;;3.27;;
50968;SDS011;36982;51.474;7.228;2023-02-04T04:36:13;14.80;;;3.40;;
50968;SDS011;36982;51.474;7.228;2023-02-04T04:38:38;20.30;;;4.07;;
50968;SDS011;36982;51.474;7.228;2023-02-04T04:41:06;15.23;;;3.33;;
50968;SDS011;36982;51.474;7.228;2023-02-04T04:43:32;16.83;;;3.50;;
50968;SDS011;36982;51.474;7.228;2023-02-04T04:45:58;13.80;;;3.37;;
50968;SDS011;36982;51.474;7.228;2023-02-04T04:48:26;12.53;;;3.60;;
50968;SDS011;36982;51.474;7.228;2023-02-04T04:50:51;19.53;;;3.40;;
50968;SDS011;36982;51.474;7.228;2023-02-04T04:53:17;18.73;;;3.57;;
50968;SDS011;36982;51.474;7.228;2023-02-04T04:55:42;16.30;;;3.47;;
50968;SDS011;36982;51.474;7.228;2023-02-04T04:58:10;20.20;;;3.70;;
50968;SDS011;36982;51.474;7.228;2023-02-04T05:00:36;19.13;;;3.00;;
50968;SDS011;36982;51.474;7.228;2023-02-04T05:03:01;22.43;;;3.93;;
50968;SDS011;36982;51.474;7.228;2023-02-04T05:05:27;18.10;;;3.10;;
50968;SDS011;36982;51.474;7.228;2023-02-04T05:07:52;20.80;;;3.63;;
50968;SDS011;36982;51.474;7.228;2023-02-04T05:10:18;16.40;;;3.63;;
50968;SDS011;36982;51.474;7.228;2023-02-04T05:12:44;15.10;;;2.80;;
50968;SDS011;36982;51.474;7.228;2023-02-04T05:15:10;17.80;;;4.17;;
50968;SDS011;36982;51.474;7.228;2023-02-04T05:17:35;17.23;;;3.23;;
50968;SDS011;36982;51.474;7.228;2023-02-04T05:20:01;25.13;;;3.90;;
50968;SDS011;36982;51.474;7.228;2023-02-04T05:22:26;18.23;;;3.00;;
50968;SDS011;36982;51.474;7.228;2023-02-04T05:24:52;15.80;;;2.97;;
50968;SDS011;36982;51.474;7.228;2023-02-04T05:27:18;23.67;;;4.07;;
50968;SDS011;36982;51.474;7.228;2023-02-04T05:29:43;20.53;;;3.93;;
50968;SDS011;36982;51.474;7.228;2023-02-04T05:32:11;20.57;;;3.63;;
50968;SDS011;36982;51.474;7.228;2023-02-04T05:34:39;15.83;;;3.50;;
50968;SDS011;36982;51.474;7.228;2023-02-04T05:37:05;19.63;;;3.90;;
50968;SDS011;36982;51.474;7.228;2023-02-04T05:39:30;15.87;;;3.50;;
50968;SDS011;36982;51.474;7.228;2023-02-04T05:41:56;21.63;;;3.00;;
50968;SDS011;36982;51.474;7.228;2023-02-04T05:44:21;17.17;;;2.90;;
50968;SDS011;36982;51.474;7.228;2023-02-04T05:46:47;17.60;;;3.30;;
50968;SDS011;36982;51.474;7.228;2023-02-04T05:49:12;18.30;;;3.83;;
50968;SDS011;36982;51.474;7.228;2023-02-04T05:51:38;18.20;;;3.27;;
50968;SDS011;36982;51.474;7.228;2023-02-04T05:54:04;13.27;;;3.10;;
50968;SDS011;36982;51.474;7.228;2023-02-04T05:56:30;21.77;;;3.73;;
50968;SDS011;36982;51.474;7.228;2023-02-04T05:58:55;17.73;;;4.37;;
50968;SDS011;36982;51.474;7.228;2023-02-04T06:01:21;13.17;;;3.10;;
50968;SDS011;36982;51.474;7.228;2023-02-04T06:03:47;18.60;;;3.47;;
50968;SDS011;36982;51.474;7.228;2023-02-04T06:06:12;17.23;;;3.67;;
50968;SDS011;36982;51.474;7.228;2023-02-04T06:08:38;18.33;;;3.73;;
50968;SDS011;36982;51.474;7.228;2023-02-04T06:11:04;19.60;;;3.50;;
50968;SDS011;36982;51.474;7.228;2023-02-04T06:13:29;24.87;;;4.07;;
50968;SDS011;36982;51.474;7.228;2023-02-04T06:15:55;17.80;;;2.90;;
50968;SDS011;36982;51.474;7.228;2023-02-04T06:18:21;18.33;;;3.33;;
50968;SDS011;36982;51.474;7.228;2023-02-04T06:20:46;21.27;;;4.17;;
50968;SDS011;36982;51.474;7.228;2023-02-04T06:23:12;15.50;;;3.10;;
50968;SDS011;36982;51.474;7.228;2023-02-04T06:25:37;17.53;;;4.03;;
50968;SDS011;36982;51.474;7.228;2023-02-04T06:28:03;20.50;;;3.90;;
50968;SDS011;36982;51.474;7.228;2023-02-04T06:30:28;15.17;;;3.33;;
50968;SDS011;36982;51.474;7.228;2023-02-04T06:32:54;22.90;;;3.57;;
50968;SDS011;36982;51.474;7.228;2023-02-04T06:35:20;14.10;;;4.10;;
50968;SDS011;36982;51.474;7.228;2023-02-04T06:37:45;20.50;;;4.13;;
50968;SDS011;36982;51.474;7.228;2023-02-04T06:40:13;17.90;;;3.47;;
50968;SDS011;36982;51.474;7.228;2023-02-04T06:42:39;17.30;;;3.67;;
50968;SDS011;36982;51.474;7.228;2023-02-04T06:45:05;18.40;;;3.17;;
50968;SDS011;36982;51.474;7.228;2023-02-04T06:47:31;14.57;;;2.97;;
50968;SDS011;36982;51.474;7.228;2023-02-04T06:49:56;19.57;;;3.63;;
50968;SDS011;36982;51.474;7.228;2023-02-04T06:52:22;17.50;;;3.73;;
50968;SDS011;36982;51.474;7.228;2023-02-04T06:54:47;15.83;;;2.70;;
50968;SDS011;36982;51.474;7.228;2023-02-04T06:57:13;21.47;;;3.67;;
50968;SDS011;36982;51.474;7.228;2023-02-04T06:59:39;15.37;;;3.37;;
50968;SDS011;36982;51.474;7.228;2023-02-04T07:02:05;17.17;;;3.33;;
50968;SDS011;36982;51.474;7.228;2023-02-04T07:04:32;17.40;;;3.90;;
50968;SDS011;36982;51.474;7.228;2023-02-04T07:07:00;16.27;;;3.60;;
50968;SDS011;36982;51.474;7.228;2023-02-04T07:09:26;14.43;;;3.13;;
50968;SDS011;36982;51.474;7.228;2023-02-04T07:11:52;14.87;;;3.10;;
50968;SDS011;36982;51.474;7.228;2023-02-04T07:14:18;18.57;;;3.37;;
50968;SDS011;36982;51.474;7.228;2023-02-04T07:16:46;23.80;;;4.17;;
50968;SDS011;36982;51.474;7.228;2023-02-04T07:19:12;15.97;;;3.70;;
50968;SDS011;36982;51.474;7.228;2023-02-04T07:21:37;17.33;;;3.27;;
50968;SDS011;36982;51.474;7.228;2023-02-04T07:24:03;26.33;;;3.40;;
50968;SDS011;36982;51.474;7.228;2023-02-04T07:26:28;17.80;;;3.97;;
50968;SDS011;36982;51.474;7.228;2023-02-04T07:28:54;19.80;;;3.70;;
50968;SDS011;36982;51.474;7.228;2023-02-04T07:31:20;20.20;;;3.53;;
50968;SDS011;36982;51.474;7.228;2023-02-04T07:33:45;18.17;;;3.50;;
50968;SDS011;36982;51.474;7.228;2023-02-04T07:36:11;18.20;;;3.47;;
50968;SDS011;36982;51.474;7.228;2023-02-04T07:38:36;20.87;;;3.87;;
50968;SDS011;36982;51.474;7.228;2023-02-04T07:41:02;23.30;;;4.37;;
50968;SDS011;36982;51.474;7.228;2023-02-04T07:43:28;19.47;;;4.17;;
50968;SDS011;36982;51.474;7.228;2023-02-04T07:45:53;18.90;;;3.17;;
50968;SDS011;36982;51.474;7.228;2023-02-04T07:48:19;17.03;;;3.57;;
50968;SDS011;36982;51.474;7.228;2023-02-04T07:50:45;22.33;;;3.63;;
50968;SDS011;36982;51.474;7.228;2023-02-04T07:53:10;18.97;;;4.10;;
50968;SDS011;36982;51.474;7.228;2023-02-04T07:55:36;20.30;;;3.37;;
50968;SDS011;36982;51.474;7.228;2023-02-04T07:58:02;19.63;;;3.77;;
50968;SDS011;36982;51.474;7.228;2023-02-04T08:00:28;19.13;;;3.73;;
50968;SDS011;36982;51.474;7.228;2023-02-04T08:02:54;18.33;;;3.47;;
50968;SDS011;36982;51.474;7.228;2023-02-04T08:05:19;15.27;;;3.73;;
50968;SDS011;36982;51.474;7.228;2023-02-04T08:07:45;13.50;;;3.00;;
50968;SDS011;36982;51.474;7.228;2023-02-04T08:10:11;18.43;;;3.83;;
50968;SDS011;36982;51.474;7.228;2023-02-04T08:12:37;23.13;;;3.80;;
50968;SDS011;36982;51.474;7.228;2023-02-04T08:15:03;18.80;;;2.93;;
50968;SDS011;36982;51.474;7.228;2023-02-04T08:17:31;22.67;;;3.73;;
50968;SDS011;36982;51.474;7.228;2023-02-04T08:19:57;19.43;;;3.33;;
50968;SDS011;36982;51.474;7.228;2023-02-04T08:22:22;20.13;;;4.53;;
50968;SDS011;36982;51.474;7.228;2023-02-04T08:24:48;24.33;;;3.87;;
50968;SDS011;36982;51.474;7.228;2023-02-04T08:27:16;16.87;;;3.60;;
50968;SDS011;36982;51.474;7.228;2023-02-04T08:29:42;21.33;;;4.73;;
50968;SDS011;36982;51.474;7.228;2023-02-04T08:32:07;21.10;;;4.13;;
50968;SDS011;36982;51.474;7.228;2023-02-04T08:34:37;14.07;;;3.70;;
50968;SDS011;36982;51.474;7.228;2023-02-04T08:37:03;19.00;;;3.97;;
50968;SDS011;36982;51.474;7.228;2023-02-04T08:39:29;18.40;;;4.40;;
50968;SDS011;36982;51.474;7.228;2023-02-04T08:41:54;18.67;;;3.70;;
50968;SDS011;36982;51.474;7.228;2023-02-04T08:44:20;14.00;;;3.23;;
50968;SDS011;36982;51.474;7.228;2023-02-04T08:46:46;15.43;;;4.10;;
50968;SDS011;36982;51.474;7.228;2023-02-04T08:49:12;14.90;;;3.20;;
50968;SDS011;36982;51.474;7.228;2023-02-04T08:51:37;19.53;;;3.80;;
50968;SDS011;36982;51.474;7.228;2023-02-04T08:54:03;23.73;;;4.30;;
50968;SDS011;36982;51.474;7.228;2023-02-04T08:56:28;19.23;;;3.83;;
50968;SDS011;36982;51.474;7.228;2023-02-04T08:58:57;20.80;;;4.37;;
50968;SDS011;36982;51.474;7.228;2023-02-04T09:01:23;18.27;;;3.93;;
50968;SDS011;36982;51.474;7.228;2023-02-04T09:03:48;16.17;;;3.50;;
50968;SDS011;36982;51.474;7.228;2023-02-04T09:06:14;19.20;;;3.93;;
50968;SDS011;36982;51.474;7.228;2023-02-04T09:08:39;20.60;;;3.90;;
50968;SDS011;36982;51.474;7.228;2023-02-04T09:11:05;16.77;;;3.87;;
50968;SDS011;36982;51.474;7.228;2023-02-04T09:13:31;19.10;;;3.97;;
50968;SDS011;36982;51.474;7.228;2023-02-04T09:15:57;17.27;;;3.97;;
50968;SDS011;36982;51.474;7.228;2023-02-04T09:18:23;16.17;;;3.67;;
50968;SDS011;36982;51.474;7.228;2023-02-04T09:20:50;22.07;;;4.10;;
50968;SDS011;36982;51.474;7.228;2023-02-04T09:23:16;17.60;;;4.17;;
50968;SDS011;36982;51.474;7.228;2023-02-04T09:25:43;17.30;;;3.77;;
50968;SDS011;36982;51.474;7.228;2023-02-04T09:28:10;19.63;;;4.20;;
50968;SDS011;36982;51.474;7.228;2023-02-04T09:30:37;18.50;;;4.53;;
50968;SDS011;36982;51.474;7.228;2023-02-04T09:33:03;22.97;;;5.37;;
50968;SDS011;36982;51.474;7.228;2023-02-04T09:35:29;18.97;;;4.40;;
50968;SDS011;36982;51.474;7.228;2023-02-04T09:37:55;18.17;;;5.00;;
50968;SDS011;36982;51.474;7.228;2023-02-04T09:40:21;20.93;;;4.70;;
50968;SDS011;36982;51.474;7.228;2023-02-04T09:42:47;21.37;;;4.13;;
50968;SDS011;36982;51.474;7.228;2023-02-04T09:45:17;29.07;;;5.00;;
50968;SDS011;36982;51.474;7.228;2023-02-04T09:47:45;24.80;;;5.30;;
50968;SDS011;36982;51.474;7.228;2023-02-04T09:50:13;26.10;;;5.67;;
50968;SDS011;36982;51.474;7.228;2023-02-04T09:52:40;18.87;;;4.50;;
50968;SDS011;36982;51.474;7.228;2023-02-04T09:55:13;19.90;;;4.27;;
50968;SDS011;36982;51.474;7.228;2023-02-04T09:57:41;24.80;;;5.43;;
50968;SDS011;36982;51.474;7.228;2023-02-04T10:02:43;24.57;;;4.53;;
50968;SDS011;36982;51.474;7.228;2023-02-04T10:07:55;18.70;;;4.57;;
50968;SDS011;36982;51.474;7.228;2023-02-04T10:10:22;16.90;;;3.93;;
50968;SDS011;36982;51.474;7.228;2023-02-04T10:12:52;24.20;;;5.20;;
50968;SDS011;36982;51.474;7.228;2023-02-04T10:15:20;21.93;;;5.60;;
50968;SDS011;36982;51.474;7.228;2023-02-04T10:17:47;22.97;;;5.10;;
50968;SDS011;36982;51.474;7.228;2023-02-04T10:20:19;18.73;;;6.00;;
50968;SDS011;36982;51.474;7.228;2023-02-04T10:22:47;18.10;;;5.67;;
50968;SDS011;36982;51.474;7.228;2023-02-04T10:25:16;14.87;;;4.77;;
50968;SDS011;36982;51.474;7.228;2023-02-04T10:27:55;23.10;;;5.30;;
50968;SDS011;36982;51.474;7.228;2023-02-04T10:30:23;21.83;;;5.43;;
50968;SDS011;36982;51.474;7.228;2023-02-04T10:32:51;24.10;;;5.83;;
50968;SDS011;36982;51.474;7.228;2023-02-04T10:35:17;17.47;;;5.57;;
50968;SDS011;36982;51.474;7.228;2023-02-04T10:37:45;20.50;;;6.33;;
50968;SDS011;36982;51.474;7.228;2023-02-04T10:40:26;20.47;;;5.03;;
50968;SDS011;36982;51.474;7.228;2023-02-04T10:42:53;22.77;;;4.83;;
50968;SDS011;36982;51.474;7.228;2023-02-04T10:45:25;23.17;;;5.37;;
50968;SDS011;36982;51.474;7.228;2023-02-04T10:47:52;18.97;;;5.33;;
50968;SDS011;36982;51.474;7.228;2023-02-04T10:50:20;24.83;;;5.23;;
50968;SDS011;36982;51.474;7.228;2023-02-04T10:52:50;22.33;;;6.10;;
50968;SDS011;36982;51.474;7.228;2023-02-04T10:55:20;25.10;;;6.47;;
50968;SDS011;36982;51.474;7.228;2023-02-04T10:57:48;24.00;;;5.87;;
50968;SDS011;36982;51.474;7.228;2023-02-04T11:00:22;20.13;;;5.40;;
50968;SDS011;36982;51.474;7.228;2023-02-04T11:03:03;25.23;;;6.13;;
50968;SDS011;36982;51.474;7.228;2023-02-04T11:05:32;28.80;;;6.13;;
50968;SDS011;36982;51.474;7.228;2023-02-04T11:08:00;26.53;;;5.07;;
50968;SDS011;36982;51.474;7.228;2023-02-04T11:10:30;21.13;;;5.27;;
50968;SDS011;36982;51.474;7.228;2023-02-04T11:12:58;22.50;;;5.83;;
50968;SDS011;36982;51.474;7.228;2023-02-04T11:20:44;19.30;;;5.70;;
50968;SDS011;36982;51.474;7.228;2023-02-04T11:28:37;23.27;;;5.83;;
50968;SDS011;36982;51.474;7.228;2023-02-04T11:31:59;24.60;;;6.33;;
50968;SDS011;36982;51.474;7.228;2023-02-04T11:39:21;21.30;;;6.67;;
50968;SDS011;36982;51.474;7.228;2023-02-04T11:41:49;23.37;;;6.80;;
50968;SDS011;36982;51.474;7.228;2023-02-04T11:44:15;21.80;;;6.50;;
50968;SDS011;36982;51.474;7.228;2023-02-04T11:46:42;25.50;;;6.87;;
50968;SDS011;36982;51.474;7.228;2023-02-04T11:49:15;28.83;;;8.70;;
50968;SDS011;36982;51.474;7.228;2023-02-04T11:51:44;22.97;;;7.00;;
50968;SDS011;36982;51.474;7.228;2023-02-04T11:54:11;21.93;;;6.83;;
50968;SDS011;36982;51.474;7.228;2023-02-04T11:56:45;24.20;;;7.93;;
50968;SDS011;36982;51.474;7.228;2023-02-04T11:59:11;19.57;;;7.17;;
50968;SDS011;36982;51.474;7.228;2023-02-04T12:01:38;26.00;;;7.63;;
50968;SDS011;36982;51.474;7.228;2023-02-04T12:04:05;22.80;;;7.57;;
50968;SDS011;36982;51.474;7.228;2023-02-04T12:06:34;18.93;;;8.47;;
50968;SDS011;36982;51.474;7.228;2023-02-04T12:11:58;25.07;;;7.13;;
50968;SDS011;36982;51.474;7.228;2023-02-04T12:17:11;24.07;;;7.10;;
50968;SDS011;36982;51.474;7.228;2023-02-04T12:19:44;20.93;;;6.67;;
50968;SDS011;36982;51.474;7.228;2023-02-04T12:22:10;21.20;;;7.07;;
50968;SDS011;36982;51.474;7.228;2023-02-04T12:24:37;24.80;;;7.63;;
50968;SDS011;36982;51.474;7.228;2023-02-04T12:27:03;19.70;;;6.47;;
50968;SDS011;36982;51.474;7.228;2023-02-04T12:29:28;18.77;;;6.33;;
50968;SDS011;36982;51.474;7.228;2023-02-04T12:31:54;20.27;;;6.57;;
50968;SDS011;36982;51.474;7.228;2023-02-04T12:34:22;18.53;;;6.60;;
50968;SDS011;36982;51.474;7.228;2023-02-04T12:36:48;19.23;;;6.57;;
50968;SDS011;36982;51.474;7.228;2023-02-04T12:39:14;18.37;;;6.80;;
50968;SDS011;36982;51.474;7.228;2023-02-04T12:41:40;21.17;;;6.43;;
50968;SDS011;36982;51.474;7.228;2023-02-04T12:44:05;20.33;;;6.43;;
50968;SDS011;36982;51.474;7.228;2023-02-04T12:46:31;23.47;;;7.10;;
50968;SDS011;36982;51.474;7.228;2023-02-04T12:48:57;18.10;;;5.83;;
50968;SDS011;36982;51.474;7.228;2023-02-04T12:51:23;18.33;;;6.47;;
50968;SDS011;36982;51.474;7.228;2023-02-04T12:53:48;16.87;;;5.87;;
50968;SDS011;36982;51.474;7.228;2023-02-04T12:56:14;18.50;;;5.53;;
50968;SDS011;36982;51.474;7.228;2023-02-04T12:58:40;16.53;;;6.40;;
50968;SDS011;36982;51.474;7.228;2023-02-04T13:01:06;17.10;;;5.93;;
50968;SDS011;36982;51.474;7.228;2023-02-04T13:03:32;18.33;;;5.77;;
50968;SDS011;36982;51.474;7.228;2023-02-04T13:05:58;20.37;;;6.57;;
50968;SDS011;36982;51.474;7.228;2023-02-04T13:08:23;20.53;;;5.80;;
50968;SDS011;36982;51.474;7.228;2023-02-04T13:10:49;16.97;;;7.10;;
50968;SDS011;36982;51.474;7.228;2023-02-04T13:13:19;19.30;;;6.07;;
50968;SDS011;36982;51.474;7.228;2023-02-04T13:15:46;17.10;;;5.93;;
50968;SDS011;36982;51.474;7.228;2023-02-04T13:18:12;18.90;;;5.90;;
50968;SDS011;36982;51.474;7.228;2023-02-04T13:20:39;17.77;;;5.47;;
50968;SDS011;36982;51.474;7.228;2023-02-04T13:23:05;16.10;;;5.63;;
50968;SDS011;36982;51.474;7.228;2023-02-04T13:25:30;16.23;;;5.80;;
50968;SDS011;36982;51.474;7.228;2023-02-04T13:27:56;17.87;;;5.47;;
50968;SDS011;36982;51.474;7.228;2023-02-04T13:30:22;22.73;;;6.40;;
50968;SDS011;36982;51.474;7.228;2023-02-04T13:32:47;21.27;;;6.07;;
50968;SDS011;36982;51.474;7.228;2023-02-04T13:35:13;19.83;;;5.87;;
50968;SDS011;36982;51.474;7.228;2023-02-04T13:37:39;21.47;;;7.37;;
50968;SDS011;36982;51.474;7.228;2023-02-04T13:40:05;21.63;;;6.67;;
50968;SDS011;36982;51.474;7.228;2023-02-04T13:42:32;23.00;;;6.33;;
50968;SDS011;36982;51.474;7.228;2023-02-04T13:44:57;18.40;;;5.47;;
50968;SDS011;36982;51.474;7.228;2023-02-04T13:47:26;18.73;;;5.83;;
50968;SDS011;36982;51.474;7.228;2023-02-04T13:49:52;17.27;;;5.07;;
50968;SDS011;36982;51.474;7.228;2023-02-04T13:52:19;14.60;;;5.50;;
50968;SDS011;36982;51.474;7.228;2023-02-04T13:54:45;17.83;;;5.30;;
50968;SDS011;36982;51.474;7.228;2023-02-04T13:57:11;17.57;;;5.20;;
50968;SDS011;36982;51.474;7.228;2023-02-04T13:59:40;18.23;;;5.23;;
50968;SDS011;36982;51.474;7.228;2023-02-04T14:02:08;15.10;;;5.13;;
50968;SDS011;36982;51.474;7.228;2023-02-04T14:04:34;20.27;;;6.23;;
50968;SDS011;36982;51.474;7.228;2023-02-04T14:07:00;15.57;;;5.40;;
50968;SDS011;36982;51.474;7.228;2023-02-04T14:09:25;15.63;;;4.87;;
50968;SDS011;36982;51.474;7.228;2023-02-04T14:11:51;18.40;;;6.47;;
50968;SDS011;36982;51.474;7.228;2023-02-04T14:14:16;18.43;;;6.00;;
50968;SDS011;36982;51.474;7.228;2023-02-04T14:16:42;15.73;;;5.13;;
50968;SDS011;36982;51.474;7.228;2023-02-04T14:19:08;19.13;;;5.13;;
50968;SDS011;36982;51.474;7.228;2023-02-04T14:21:34;16.43;;;5.50;;
50968;SDS011;36982;51.474;7.228;2023-02-04T14:24:00;15.30;;;5.97;;
50968;SDS011;36982;51.474;7.228;2023-02-04T14:26:28;17.53;;;6.73;;
50968;SDS011;36982;51.474;7.228;2023-02-04T14:28:54;19.63;;;6.30;;
50968;SDS011;36982;51.474;7.228;2023-02-04T14:31:19;17.53;;;5.53;;
50968;SDS011;36982;51.474;7.228;2023-02-04T14:33:45;15.57;;;5.23;;
50968;SDS011;36982;51.474;7.228;2023-02-04T14:36:10;21.70;;;6.23;;
50968;SDS011;36982;51.474;7.228;2023-02-04T14:38:36;22.17;;;5.90;;
50968;SDS011;36982;51.474;7.228;2023-02-04T14:41:03;19.27;;;6.13;;
50968;SDS011;36982;51.474;7.228;2023-02-04T14:43:29;16.93;;;6.53;;
50968;SDS011;36982;51.474;7.228;2023-02-04T14:46:00;20.07;;;5.53;;
50968;SDS011;36982;51.474;7.228;2023-02-04T14:48:31;17.67;;;6.13;;
50968;SDS011;36982;51.474;7.228;2023-02-04T14:50:57;16.63;;;5.97;;
50968;SDS011;36982;51.474;7.228;2023-02-04T14:53:23;18.43;;;6.07;;
50968;SDS011;36982;51.474;7.228;2023-02-04T14:55:48;15.77;;;6.03;;